createdAt,value
2019-02-22T00:00:30.419Z,1010.31
2019-02-22T00:01:10.180Z,1010.33
2019-02-22T00:02:09.402Z,1010.37
2019-02-22T00:03:09.366Z,1010.41
2019-02-22T00:04:30.420Z,1010.43
2019-02-22T00:05:30.386Z,1010.36
2019-02-22T00:06:09.381Z,1010.33
2019-02-22T00:07:09.374Z,1010.34
2019-02-22T00:08:09.374Z,1010.45
2019-02-22T00:09:30.369Z,1010.41
2019-02-22T00:10:30.553Z,1010.37
2019-02-22T00:11:09.381Z,1010.40
2019-02-22T00:12:09.351Z,1010.40
2019-02-22T00:13:09.340Z,1010.39
2019-02-22T00:14:30.366Z,1010.44
2019-02-22T00:15:30.332Z,1010.41
2019-02-22T00:16:09.320Z,1010.43
2019-02-22T00:17:09.327Z,1010.44
2019-02-22T00:18:09.316Z,1010.45
2019-02-22T00:19:30.353Z,1010.47
2019-02-22T00:20:30.325Z,1010.48
2019-02-22T00:21:09.305Z,1010.51
2019-02-22T00:22:09.310Z,1010.51
2019-02-22T00:23:09.363Z,1010.49
2019-02-22T00:24:30.304Z,1010.48
2019-02-22T00:25:30.284Z,1010.46
2019-02-22T00:26:10.964Z,1010.50
2019-02-22T00:27:09.262Z,1010.54
2019-02-22T00:28:09.277Z,1010.52
2019-02-22T00:29:30.281Z,1010.54
2019-02-22T00:30:30.264Z,1010.56
2019-02-22T00:31:09.299Z,1010.54
2019-02-22T00:32:10.244Z,1010.60
2019-02-22T00:33:09.244Z,1010.57
2019-02-22T00:34:30.251Z,1010.55
2019-02-22T00:35:30.331Z,1010.57
2019-02-22T00:36:09.239Z,1010.59
2019-02-22T00:37:09.284Z,1010.54
2019-02-22T00:38:09.231Z,1010.60
2019-02-22T00:39:30.225Z,1010.57
2019-02-22T00:40:30.219Z,1010.62
2019-02-22T00:41:12.257Z,1010.62
2019-02-22T00:42:09.199Z,1010.63
2019-02-22T00:43:09.197Z,1010.60
2019-02-22T00:44:30.205Z,1010.60
2019-02-22T00:45:30.191Z,1010.62
2019-02-22T00:46:09.180Z,1010.60
2019-02-22T00:47:09.193Z,1010.66
2019-02-22T00:48:09.182Z,1010.63
2019-02-22T00:49:30.182Z,1010.68
2019-02-22T00:50:30.178Z,1010.68
2019-02-22T00:51:09.161Z,1010.63
2019-02-22T00:52:09.158Z,1010.72
2019-02-22T00:53:11.460Z,1010.71
2019-02-22T00:54:30.153Z,1010.69
2019-02-22T00:55:30.148Z,1010.71
2019-02-22T00:56:09.136Z,1010.75
2019-02-22T00:57:09.168Z,1010.71
2019-02-22T00:58:09.129Z,1010.71
2019-02-22T00:59:30.132Z,1010.70
2019-02-22T01:00:32.083Z,1010.74
2019-02-22T01:01:09.107Z,1010.72
2019-02-22T01:02:09.116Z,1010.74
2019-02-22T01:03:09.097Z,1010.63
2019-02-22T01:04:30.104Z,1010.73
2019-02-22T01:05:30.099Z,1010.74
2019-02-22T01:06:09.091Z,1010.69
2019-02-22T01:07:09.081Z,1010.69
2019-02-22T01:08:09.075Z,1010.74
2019-02-22T01:09:30.049Z,1010.76
2019-02-22T01:10:31.510Z,1010.74
2019-02-22T01:11:09.058Z,1010.79
2019-02-22T01:12:09.053Z,1010.80
2019-02-22T01:13:09.057Z,1010.78
2019-02-22T01:14:30.060Z,1010.80
2019-02-22T01:15:30.041Z,1010.81
2019-02-22T01:16:09.039Z,1010.80
2019-02-22T01:17:09.036Z,1010.84
2019-02-22T01:18:09.023Z,1010.82
2019-02-22T01:19:30.032Z,1010.81
2019-02-22T01:20:30.027Z,1010.85
2019-02-22T01:21:09.019Z,1010.82
2019-02-22T01:22:09.009Z,1010.82
2019-02-22T01:23:09.001Z,1010.85
2019-02-22T01:24:30.011Z,1010.89
2019-02-22T01:25:30.013Z,1010.86
2019-02-22T01:26:08.987Z,1010.94
2019-02-22T01:27:08.975Z,1010.94
2019-02-22T01:28:08.984Z,1010.92
2019-02-22T01:29:29.987Z,1010.92
2019-02-22T01:30:29.986Z,1010.93
2019-02-22T01:31:08.960Z,1010.94
2019-02-22T01:32:08.961Z,1010.95
2019-02-22T01:33:09.390Z,1010.92
2019-02-22T01:34:29.961Z,1010.96
2019-02-22T01:35:29.971Z,1010.92
2019-02-22T01:36:08.946Z,1010.96
2019-02-22T01:37:08.938Z,1010.93
2019-02-22T01:38:08.936Z,1010.91
2019-02-22T01:39:29.945Z,1010.94
2019-02-22T01:40:29.928Z,1011.01
2019-02-22T01:41:08.914Z,1010.93
2019-02-22T01:42:08.919Z,1010.99
2019-02-22T01:43:08.900Z,1011.00
2019-02-22T01:44:29.908Z,1011.02
2019-02-22T01:45:29.903Z,1011.05
2019-02-22T01:46:08.897Z,1011.07
2019-02-22T01:47:08.903Z,1011.07
2019-02-22T01:48:08.886Z,1011.05
2019-02-22T01:49:29.893Z,1011.05
2019-02-22T01:50:29.868Z,1011.07
2019-02-22T01:51:08.875Z,1011.09
2019-02-22T01:52:08.864Z,1011.11
2019-02-22T01:53:08.857Z,1011.07
2019-02-22T01:54:29.851Z,1011.01
2019-02-22T01:55:29.852Z,1011.04
2019-02-22T01:56:08.845Z,1011.09
2019-02-22T01:57:08.842Z,1011.00
2019-02-22T01:58:08.835Z,1011.07
2019-02-22T01:59:29.865Z,1011.07
2019-02-22T02:00:29.828Z,1011.07
2019-02-22T02:01:08.802Z,1011.08
2019-02-22T02:02:08.808Z,1011.11
2019-02-22T02:03:08.791Z,1011.13
2019-02-22T02:04:29.817Z,1011.16
2019-02-22T02:05:29.801Z,1011.14
2019-02-22T02:06:08.793Z,1011.17
2019-02-22T02:07:08.809Z,1011.15
2019-02-22T02:08:08.757Z,1011.18
2019-02-22T02:09:29.781Z,1011.14
2019-02-22T02:10:29.732Z,1011.15
2019-02-22T02:11:08.759Z,1011.17
2019-02-22T02:12:08.765Z,1011.14
2019-02-22T02:13:08.759Z,1011.17
2019-02-22T02:14:29.945Z,1011.16
2019-02-22T02:15:29.759Z,1011.17
2019-02-22T02:16:08.744Z,1011.16
2019-02-22T02:17:08.732Z,1011.16
2019-02-22T02:18:08.750Z,1011.13
2019-02-22T02:19:29.766Z,1011.15
2019-02-22T02:20:29.789Z,1011.10
2019-02-22T02:21:08.717Z,1011.11
2019-02-22T02:22:08.710Z,1011.12
2019-02-22T02:23:08.698Z,1011.13
2019-02-22T02:24:29.708Z,1011.14
2019-02-22T02:25:29.722Z,1011.11
2019-02-22T02:26:08.708Z,1011.18
2019-02-22T02:27:08.681Z,1011.19
2019-02-22T02:28:08.699Z,1011.17
2019-02-22T02:29:29.679Z,1011.20
2019-02-22T02:30:29.682Z,1011.23
2019-02-22T02:31:08.669Z,1011.26
2019-02-22T02:32:08.665Z,1011.23
2019-02-22T02:33:08.655Z,1011.25
2019-02-22T02:34:29.655Z,1011.21
2019-02-22T02:35:29.641Z,1011.22
2019-02-22T02:36:08.632Z,1011.25
2019-02-22T02:37:08.638Z,1011.23
2019-02-22T02:38:08.639Z,1011.26
2019-02-22T02:39:29.643Z,1011.26
2019-02-22T02:40:29.625Z,1011.23
2019-02-22T02:41:11.240Z,1011.27
2019-02-22T02:42:08.589Z,1011.27
2019-02-22T02:43:08.599Z,1011.31
2019-02-22T02:44:29.587Z,1011.32
2019-02-22T02:45:30.302Z,1011.35
2019-02-22T02:46:08.589Z,1011.37
2019-02-22T02:47:08.590Z,1011.39
2019-02-22T02:48:08.582Z,1011.39
2019-02-22T02:49:29.581Z,1011.41
2019-02-22T02:50:29.595Z,1011.41
2019-02-22T02:51:08.569Z,1011.38
2019-02-22T02:52:08.561Z,1011.47
2019-02-22T02:53:08.553Z,1011.50
2019-02-22T02:54:29.589Z,1011.50
2019-02-22T02:55:29.548Z,1011.56
2019-02-22T02:56:08.536Z,1011.51
2019-02-22T02:57:08.504Z,1011.54
2019-02-22T02:58:08.531Z,1011.58
2019-02-22T02:59:29.531Z,1011.55
2019-02-22T03:00:29.515Z,1011.56
2019-02-22T03:01:08.567Z,1011.55
2019-02-22T03:02:08.511Z,1011.62
2019-02-22T03:03:08.505Z,1011.61
2019-02-22T03:04:29.507Z,1011.63
2019-02-22T03:05:29.553Z,1011.56
2019-02-22T03:06:08.487Z,1011.66
2019-02-22T03:07:08.472Z,1011.66
2019-02-22T03:08:08.489Z,1011.66
2019-02-22T03:09:29.477Z,1011.64
2019-02-22T03:10:31.479Z,1011.64
2019-02-22T03:11:19.749Z,1011.72
2019-02-22T03:12:08.440Z,1011.72
2019-02-22T03:13:08.443Z,1011.75
2019-02-22T03:14:29.446Z,1011.74
2019-02-22T03:15:29.441Z,1011.74
2019-02-22T03:16:08.424Z,1011.76
2019-02-22T03:17:08.420Z,1011.79
2019-02-22T03:18:08.393Z,1011.78
2019-02-22T03:19:29.421Z,1011.74
2019-02-22T03:20:29.400Z,1011.76
2019-02-22T03:21:08.409Z,1011.76
2019-02-22T03:22:08.402Z,1011.75
2019-02-22T03:23:08.395Z,1011.77
2019-02-22T03:24:29.500Z,1011.77
2019-02-22T03:25:29.392Z,1011.75
2019-02-22T03:26:08.378Z,1011.76
2019-02-22T03:27:08.378Z,1011.76
2019-02-22T03:28:08.401Z,1011.72
2019-02-22T03:29:29.384Z,1011.74
2019-02-22T03:30:29.371Z,1011.74
2019-02-22T03:31:08.495Z,1011.72
2019-02-22T03:32:08.349Z,1011.75
2019-02-22T03:33:08.354Z,1011.69
2019-02-22T03:34:29.373Z,1011.69
2019-02-22T03:35:29.400Z,1011.70
2019-02-22T03:36:08.945Z,1011.74
2019-02-22T03:37:08.337Z,1011.69
2019-02-22T03:38:08.313Z,1011.71
2019-02-22T03:39:29.299Z,1011.71
2019-02-22T03:40:29.311Z,1011.77
2019-02-22T03:41:08.311Z,1011.80
2019-02-22T03:42:08.282Z,1011.77
2019-02-22T03:43:08.294Z,1011.76
2019-02-22T03:44:29.262Z,1011.84
2019-02-22T03:45:29.262Z,1011.92
2019-02-22T03:46:08.260Z,1011.89
2019-02-22T03:47:08.254Z,1011.92
2019-02-22T03:48:08.250Z,1011.95
2019-02-22T03:49:29.258Z,1011.98
2019-02-22T03:50:29.245Z,1011.97
2019-02-22T03:51:08.256Z,1011.99
2019-02-22T03:52:08.237Z,1012.00
2019-02-22T03:53:08.230Z,1011.98
2019-02-22T03:54:29.236Z,1011.98
2019-02-22T03:55:29.225Z,1012.01
2019-02-22T03:56:08.289Z,1012.02
2019-02-22T03:57:08.203Z,1011.97
2019-02-22T03:58:08.202Z,1012.01
2019-02-22T03:59:29.209Z,1012.02
2019-02-22T04:00:29.213Z,1012.04
2019-02-22T04:01:08.190Z,1012.04
2019-02-22T04:02:08.179Z,1012.00
2019-02-22T04:03:08.169Z,1012.05
2019-02-22T04:04:29.177Z,1012.03
2019-02-22T04:05:29.246Z,1012.04
2019-02-22T04:06:08.168Z,1012.02
2019-02-22T04:07:09.164Z,1012.05
2019-02-22T04:08:08.159Z,1012.09
2019-02-22T04:09:29.138Z,1012.14
2019-02-22T04:10:29.184Z,1012.13
2019-02-22T04:11:08.127Z,1012.14
2019-02-22T04:12:08.123Z,1012.17
2019-02-22T04:13:08.128Z,1012.24
2019-02-22T04:14:29.140Z,1012.25
2019-02-22T04:15:29.160Z,1012.27
2019-02-22T04:16:08.106Z,1012.28
2019-02-22T04:17:08.105Z,1012.29
2019-02-22T04:19:40.807Z,1012.31
2019-02-22T04:20:40.794Z,1012.30
2019-02-22T04:22:35.140Z,1012.33
2019-02-22T04:23:35.131Z,1012.35
2019-02-22T04:25:29.515Z,1012.31
2019-02-22T04:26:29.488Z,1012.30
2019-02-22T04:28:23.850Z,1012.30
2019-02-22T04:29:23.858Z,1012.29
2019-02-22T04:31:18.401Z,1012.39
2019-02-22T04:32:18.203Z,1012.41
2019-02-22T04:34:12.563Z,1012.45
2019-02-22T04:35:12.552Z,1012.45
2019-02-22T04:37:06.952Z,1012.48
2019-02-22T04:38:06.916Z,1012.51
2019-02-22T04:40:01.289Z,1012.54
2019-02-22T04:41:01.279Z,1012.53
2019-02-22T04:42:55.662Z,1012.57
2019-02-22T04:43:55.625Z,1012.52
2019-02-22T04:45:49.982Z,1012.55
2019-02-22T04:46:49.993Z,1012.50
2019-02-22T04:48:44.376Z,1012.63
2019-02-22T04:49:44.335Z,1012.60
2019-02-22T04:51:38.708Z,1012.59
2019-02-22T04:52:38.698Z,1012.63
2019-02-22T04:54:33.174Z,1012.66
2019-02-22T04:55:33.061Z,1012.69
2019-02-22T04:57:27.416Z,1012.69
2019-02-22T04:58:27.406Z,1012.70
2019-02-22T05:00:21.813Z,1012.75
2019-02-22T05:01:21.764Z,1012.75
2019-02-22T05:03:16.138Z,1012.78
2019-02-22T05:04:16.129Z,1012.78
2019-02-22T05:06:10.579Z,1012.81
2019-02-22T05:07:10.487Z,1012.83
2019-02-22T05:09:04.853Z,1012.87
2019-02-22T05:10:04.845Z,1012.84
2019-02-22T05:12:10.409Z,1012.86
2019-02-22T05:12:59.207Z,1012.86
2019-02-22T05:14:53.570Z,1012.85
2019-02-22T05:15:53.560Z,1012.90
2019-02-22T05:17:48.004Z,1012.94
2019-02-22T05:18:47.921Z,1012.95
2019-02-22T05:20:42.288Z,1012.94
2019-02-22T05:21:42.281Z,1012.93
2019-02-22T05:23:36.651Z,1012.98
2019-02-22T05:24:36.642Z,1013.00
2019-02-22T05:26:30.995Z,1013.02
2019-02-22T05:27:30.988Z,1013.02
2019-02-22T05:29:25.366Z,1013.03
2019-02-22T05:30:25.340Z,1013.01
2019-02-22T05:32:19.712Z,1013.06
2019-02-22T05:33:19.711Z,1013.04
2019-02-22T05:35:14.094Z,1013.11
2019-02-22T05:36:14.052Z,1013.10
2019-02-22T05:38:08.420Z,1013.12
2019-02-22T05:39:18.435Z,1013.12
2019-02-22T05:41:02.807Z,1013.15
2019-02-22T05:42:02.776Z,1013.19
2019-02-22T05:43:57.146Z,1013.14
2019-02-22T05:44:57.128Z,1013.17
2019-02-22T05:46:59.848Z,1013.23
2019-02-22T05:47:51.489Z,1013.27
2019-02-22T05:49:45.862Z,1013.23
2019-02-22T05:50:45.848Z,1013.27
2019-02-22T05:52:40.226Z,1013.30
2019-02-22T05:53:40.212Z,1013.34
2019-02-22T05:55:34.586Z,1013.38
2019-02-22T05:56:34.582Z,1013.42
2019-02-22T05:58:28.941Z,1013.44
2019-02-22T05:59:28.935Z,1013.45
2019-02-22T06:01:23.295Z,1013.49
2019-02-22T06:02:23.288Z,1013.48
2019-02-22T06:04:17.680Z,1013.54
2019-02-22T06:05:17.648Z,1013.51
2019-02-22T06:07:14.479Z,1013.53
2019-02-22T06:08:12.004Z,1013.59
2019-02-22T06:10:06.407Z,1013.60
2019-02-22T06:11:06.369Z,1013.65
2019-02-22T06:13:00.733Z,1013.66
2019-02-22T06:14:00.733Z,1013.67
2019-02-22T06:15:55.112Z,1013.75
2019-02-22T06:16:55.086Z,1013.73
2019-02-22T06:18:49.475Z,1013.79
2019-02-22T06:19:49.442Z,1013.73
2019-02-22T06:21:43.829Z,1013.81
2019-02-22T06:22:43.805Z,1013.84
2019-02-22T06:24:38.167Z,1013.89
2019-02-22T06:25:38.157Z,1013.89
2019-02-22T06:27:32.549Z,1013.93
2019-02-22T06:28:32.524Z,1013.93
2019-02-22T06:30:26.879Z,1014.02
2019-02-22T06:31:26.866Z,1013.99
2019-02-22T06:33:21.500Z,1014.02
2019-02-22T06:34:21.228Z,1014.02
2019-02-22T06:36:15.621Z,1014.02
2019-02-22T06:37:15.587Z,1014.04
2019-02-22T06:39:09.950Z,1014.07
2019-02-22T06:40:09.934Z,1014.09
2019-02-22T06:42:04.299Z,1014.20
2019-02-22T06:43:04.289Z,1014.16
2019-02-22T06:44:58.658Z,1014.22
2019-02-22T06:45:58.697Z,1014.20
2019-02-22T06:47:53.025Z,1014.26
2019-02-22T06:48:53.007Z,1014.27
2019-02-22T06:50:50.575Z,1014.29
2019-02-22T06:51:50.663Z,1014.30
2019-02-22T06:53:44.922Z,1014.35
2019-02-22T06:54:44.915Z,1014.37
2019-02-22T06:56:39.299Z,1014.42
2019-02-22T06:57:39.278Z,1014.43
2019-02-22T06:59:33.783Z,1014.48
2019-02-22T07:00:33.630Z,1014.49
2019-02-22T07:02:28.032Z,1014.53
2019-02-22T07:03:27.990Z,1014.58
2019-02-22T07:05:22.356Z,1014.61
2019-02-22T07:06:22.348Z,1014.63
2019-02-22T07:08:16.822Z,1014.68
2019-02-22T07:09:16.728Z,1014.69
2019-02-22T07:11:11.099Z,1014.73
2019-02-22T07:12:11.100Z,1014.74
2019-02-22T07:14:05.470Z,1014.82
2019-02-22T07:15:05.448Z,1014.79
2019-02-22T07:16:59.815Z,1014.84
2019-02-22T07:17:59.810Z,1014.90
2019-02-22T07:19:54.173Z,1014.95
2019-02-22T07:20:54.164Z,1014.98
2019-02-22T07:22:48.523Z,1014.99
2019-02-22T07:23:48.511Z,1015.11
2019-02-22T07:25:42.965Z,1015.12
2019-02-22T07:26:42.870Z,1015.11
2019-02-22T07:28:37.238Z,1015.09
2019-02-22T07:29:37.234Z,1015.14
2019-02-22T07:31:31.699Z,1015.17
2019-02-22T07:32:31.582Z,1015.21
2019-02-22T07:34:26.135Z,1015.17
2019-02-22T07:35:26.073Z,1015.19
2019-02-22T07:37:20.581Z,1015.22
2019-02-22T07:38:20.531Z,1015.28
2019-02-22T07:40:14.904Z,1015.29
2019-02-22T07:41:14.958Z,1015.30
2019-02-22T07:43:09.340Z,1015.36
2019-02-22T07:44:09.270Z,1015.35
2019-02-22T07:46:03.643Z,1015.34
2019-02-22T07:47:03.625Z,1015.43
2019-02-22T07:48:58.020Z,1015.46
2019-02-22T07:49:57.978Z,1015.50
2019-02-22T07:51:52.345Z,1015.47
2019-02-22T07:52:52.336Z,1015.53
2019-02-22T07:54:46.750Z,1015.54
2019-02-22T07:55:46.694Z,1015.54
2019-02-22T07:57:41.083Z,1015.62
2019-02-22T07:58:41.072Z,1015.60
2019-02-22T08:00:35.475Z,1015.57
2019-02-22T08:01:46.601Z,1015.59
2019-02-22T08:03:29.819Z,1015.62
2019-02-22T08:04:29.785Z,1015.66
2019-02-22T08:06:24.258Z,1015.69
2019-02-22T08:07:24.149Z,1015.73
2019-02-22T08:09:18.541Z,1015.72
2019-02-22T08:10:18.499Z,1015.71
2019-02-22T08:12:12.874Z,1015.71
2019-02-22T08:13:19.739Z,1015.76
2019-02-22T08:15:07.245Z,1015.72
2019-02-22T08:16:07.216Z,1015.73
2019-02-22T08:18:01.618Z,1015.77
2019-02-22T08:19:02.102Z,1015.81
2019-02-22T08:20:56.053Z,1015.82
2019-02-22T08:21:56.018Z,1015.89
2019-02-22T08:23:50.388Z,1015.86
2019-02-22T08:24:50.409Z,1015.90
2019-02-22T08:26:44.920Z,1015.87
2019-02-22T08:27:52.958Z,1015.92
2019-02-22T08:29:39.388Z,1015.97
2019-02-22T08:30:39.248Z,1015.93
2019-02-22T08:32:33.674Z,1016.00
2019-02-22T08:33:33.633Z,1016.02
2019-02-22T08:35:27.995Z,1015.96
2019-02-22T08:36:27.987Z,1015.99
2019-02-22T08:38:22.378Z,1016.02
2019-02-22T08:39:22.336Z,1016.01
2019-02-22T08:41:15.696Z,1016.05
2019-02-22T08:42:15.691Z,1016.09
2019-02-22T08:44:10.548Z,1016.13
2019-02-22T08:45:10.050Z,1016.17
2019-02-22T08:47:04.401Z,1016.17
2019-02-22T08:48:04.393Z,1016.22
2019-02-22T08:49:58.818Z,1016.20
2019-02-22T08:50:58.766Z,1016.24
2019-02-22T08:52:53.148Z,1016.29
2019-02-22T08:53:53.132Z,1016.33
2019-02-22T08:55:47.522Z,1016.30
2019-02-22T08:56:47.483Z,1016.37
2019-02-22T08:58:41.848Z,1016.34
2019-02-22T08:59:41.843Z,1016.41
2019-02-22T09:01:36.240Z,1016.50
2019-02-22T09:02:36.200Z,1016.49
2019-02-22T09:04:30.578Z,1016.53
2019-02-22T09:05:30.636Z,1016.56
2019-02-22T09:07:24.957Z,1016.52
2019-02-22T09:08:24.918Z,1016.56
2019-02-22T09:10:19.298Z,1016.59
2019-02-22T09:11:19.277Z,1016.62
2019-02-22T09:13:13.749Z,1016.61
2019-02-22T09:14:13.663Z,1016.66
2019-02-22T09:16:08.020Z,1016.62
2019-02-22T09:17:07.998Z,1016.63
2019-02-22T09:19:02.370Z,1016.68
2019-02-22T09:20:02.361Z,1016.66
2019-02-22T09:21:56.727Z,1016.68
2019-02-22T09:22:56.713Z,1016.75
2019-02-22T09:24:51.099Z,1016.76
2019-02-22T09:25:51.089Z,1016.81
2019-02-22T09:27:45.437Z,1016.86
2019-02-22T09:28:45.432Z,1016.86
2019-02-22T09:30:39.816Z,1016.91
2019-02-22T09:31:39.785Z,1016.97
2019-02-22T09:33:34.157Z,1016.95
2019-02-22T09:34:34.144Z,1016.95
2019-02-22T09:36:28.532Z,1016.98
2019-02-22T09:37:28.503Z,1017.02
2019-02-22T09:39:22.872Z,1017.06
2019-02-22T09:40:22.865Z,1017.05
2019-02-22T09:42:17.278Z,1017.07
2019-02-22T09:43:17.233Z,1017.07
2019-02-22T09:45:11.591Z,1017.08
2019-02-22T09:46:11.582Z,1017.07
2019-02-22T09:48:06.239Z,1017.19
2019-02-22T09:49:05.941Z,1017.14
2019-02-22T09:51:00.309Z,1017.21
2019-02-22T09:52:00.298Z,1017.18
2019-02-22T09:53:54.670Z,1017.19
2019-02-22T09:54:54.668Z,1017.23
2019-02-22T09:56:50.864Z,1017.30
2019-02-22T09:57:49.015Z,1017.25
2019-02-22T09:59:43.372Z,1017.32
2019-02-22T10:00:43.413Z,1017.32
2019-02-22T10:02:37.738Z,1017.30
2019-02-22T10:03:37.721Z,1017.36
2019-02-22T10:05:32.129Z,1017.37
2019-02-22T10:06:32.077Z,1017.36
2019-02-22T10:08:26.441Z,1017.42
2019-02-22T10:09:26.433Z,1017.44
2019-02-22T10:11:20.831Z,1017.45
2019-02-22T10:12:20.788Z,1017.43
2019-02-22T10:14:15.178Z,1017.50
2019-02-22T10:15:15.183Z,1017.52
2019-02-22T10:17:09.542Z,1017.52
2019-02-22T10:18:09.500Z,1017.54
2019-02-22T10:20:03.869Z,1017.59
2019-02-22T10:21:03.864Z,1017.57
2019-02-22T10:22:58.255Z,1017.61
2019-02-22T10:23:58.213Z,1017.61
2019-02-22T10:25:51.666Z,1017.63
2019-02-22T10:26:51.650Z,1017.67
2019-02-22T10:28:46.132Z,1017.74
2019-02-22T10:29:46.014Z,1017.70
2019-02-22T10:31:40.380Z,1017.74
2019-02-22T10:32:40.370Z,1017.78
2019-02-22T10:34:34.808Z,1017.80
2019-02-22T10:35:34.733Z,1017.84
2019-02-22T10:37:29.267Z,1017.86
2019-02-22T10:38:29.251Z,1017.91
2019-02-22T10:40:23.620Z,1018.05
2019-02-22T10:41:23.610Z,1018.04
2019-02-22T10:43:17.978Z,1018.09
2019-02-22T10:44:18.106Z,1018.05
2019-02-22T10:46:12.438Z,1018.10
2019-02-22T10:47:12.324Z,1018.11
2019-02-22T10:49:06.691Z,1018.15
2019-02-22T10:50:06.678Z,1018.18
2019-02-22T10:52:01.124Z,1018.21
2019-02-22T10:53:02.370Z,1018.17
2019-02-22T10:54:55.399Z,1018.22
2019-02-22T10:55:55.379Z,1018.25
2019-02-22T10:57:49.839Z,1018.28
2019-02-22T10:58:49.783Z,1018.33
2019-02-22T11:00:44.102Z,1018.31
2019-02-22T11:01:44.093Z,1018.39
2019-02-22T11:03:38.477Z,1018.39
2019-02-22T11:04:38.497Z,1018.38
2019-02-22T11:06:32.804Z,1018.47
2019-02-22T11:07:32.798Z,1018.51
2019-02-22T11:09:27.196Z,1018.56
2019-02-22T11:10:27.149Z,1018.58
2019-02-22T11:12:21.532Z,1018.64
2019-02-22T11:13:21.576Z,1018.65
2019-02-22T11:15:16.931Z,1018.69
2019-02-22T11:16:16.903Z,1018.74
2019-02-22T11:18:11.266Z,1018.73
2019-02-22T11:19:11.265Z,1018.72
2019-02-22T11:21:09.858Z,1018.71
2019-02-22T11:22:09.815Z,1018.79
2019-02-22T11:23:09.828Z,1018.79
2019-02-22T11:24:09.799Z,1018.81
2019-02-22T11:25:09.792Z,1018.77
2019-02-22T11:26:09.879Z,1018.80
2019-02-22T11:27:09.779Z,1018.77
2019-02-22T11:28:09.770Z,1018.78
2019-02-22T11:29:09.759Z,1018.82
2019-02-22T11:30:09.759Z,1018.84
2019-02-22T11:31:09.749Z,1018.81
2019-02-22T11:32:09.743Z,1018.83
2019-02-22T11:33:09.731Z,1018.86
2019-02-22T11:34:09.720Z,1018.90
2019-02-22T11:35:09.719Z,1018.87
2019-02-22T11:36:09.704Z,1018.85
2019-02-22T11:37:09.698Z,1018.84
2019-02-22T11:38:09.692Z,1018.89
2019-02-22T11:39:09.681Z,1018.89
2019-02-22T11:40:09.673Z,1018.89
2019-02-22T11:41:09.664Z,1018.91
2019-02-22T11:42:09.731Z,1018.93
2019-02-22T11:43:09.650Z,1018.96
2019-02-22T11:44:09.663Z,1018.96
2019-02-22T11:45:09.635Z,1019.05
2019-02-22T11:46:09.635Z,1018.99
2019-02-22T11:47:09.611Z,1019.00
2019-02-22T11:48:09.688Z,1018.99
2019-02-22T11:49:09.596Z,1019.05
2019-02-22T11:50:09.587Z,1019.07
2019-02-22T11:51:09.580Z,1019.03
2019-02-22T11:52:09.571Z,1019.07
2019-02-22T11:53:09.567Z,1019.09
2019-02-22T11:54:09.555Z,1019.13
2019-02-22T11:55:09.704Z,1019.10
2019-02-22T11:56:09.545Z,1019.13
2019-02-22T11:57:09.610Z,1019.14
2019-02-22T11:58:09.656Z,1019.18
2019-02-22T11:59:09.567Z,1019.25
2019-02-22T12:00:09.505Z,1019.25
2019-02-22T12:01:09.565Z,1019.22
2019-02-22T12:02:09.485Z,1019.28
2019-02-22T12:03:23.599Z,1019.29
2019-02-22T12:04:09.472Z,1019.31
2019-02-22T12:05:09.460Z,1019.36
2019-02-22T12:06:09.450Z,1019.39
2019-02-22T12:07:09.440Z,1019.38
2019-02-22T12:08:09.435Z,1019.39
2019-02-22T12:09:09.425Z,1019.45
2019-02-22T12:10:09.416Z,1019.49
2019-02-22T12:11:09.414Z,1019.47
2019-02-22T12:12:09.400Z,1019.51
2019-02-22T12:13:10.191Z,1019.51
2019-02-22T12:14:09.432Z,1019.50
2019-02-22T12:15:09.372Z,1019.56
2019-02-22T12:16:09.370Z,1019.54
2019-02-22T12:17:09.354Z,1019.59
2019-02-22T12:18:09.354Z,1019.57
2019-02-22T12:19:09.338Z,1019.59
2019-02-22T12:20:09.345Z,1019.60
2019-02-22T12:21:09.352Z,1019.59
2019-02-22T12:22:09.309Z,1019.61
2019-02-22T12:23:09.303Z,1019.62
2019-02-22T12:24:09.293Z,1019.66
2019-02-22T12:25:09.284Z,1019.62
2019-02-22T12:26:09.277Z,1019.63
2019-02-22T12:27:09.270Z,1019.64
2019-02-22T12:28:09.280Z,1019.65
2019-02-22T12:29:09.318Z,1019.63
2019-02-22T12:30:09.241Z,1019.62
2019-02-22T12:31:09.252Z,1019.63
2019-02-22T12:32:09.221Z,1019.67
2019-02-22T12:33:09.214Z,1019.67
2019-02-22T12:34:09.235Z,1019.71
2019-02-22T12:35:09.196Z,1019.74
2019-02-22T12:36:09.707Z,1019.74
2019-02-22T12:37:09.180Z,1019.71
2019-02-22T12:38:09.174Z,1019.72
2019-02-22T12:39:09.165Z,1019.71
2019-02-22T12:40:09.154Z,1019.77
2019-02-22T12:41:09.145Z,1019.76
2019-02-22T12:42:09.138Z,1019.76
2019-02-22T12:43:09.131Z,1019.80
2019-02-22T12:44:09.130Z,1019.79
2019-02-22T12:45:09.114Z,1019.80
2019-02-22T12:46:09.115Z,1019.80
2019-02-22T12:47:10.174Z,1019.84
2019-02-22T12:48:09.113Z,1019.90
2019-02-22T12:49:09.081Z,1019.86
2019-02-22T12:50:09.074Z,1019.87
2019-02-22T12:51:09.071Z,1019.87
2019-02-22T12:52:09.055Z,1019.88
2019-02-22T12:53:09.049Z,1019.92
2019-02-22T12:54:09.039Z,1019.88
2019-02-22T12:55:09.030Z,1019.89
2019-02-22T12:56:09.022Z,1019.92
2019-02-22T12:57:09.012Z,1020.01
2019-02-22T12:58:09.006Z,1019.98
2019-02-22T12:59:08.996Z,1019.95
2019-02-22T13:00:08.997Z,1020.04
2019-02-22T13:01:08.980Z,1019.99
2019-02-22T13:02:08.971Z,1019.99
2019-02-22T13:03:08.976Z,1020.02
2019-02-22T13:04:08.972Z,1020.07
2019-02-22T13:05:08.948Z,1020.08
2019-02-22T13:06:08.942Z,1020.09
2019-02-22T13:07:08.929Z,1020.10
2019-02-22T13:08:08.925Z,1020.14
2019-02-22T13:09:08.917Z,1020.13
2019-02-22T13:10:08.910Z,1020.16
2019-02-22T13:11:08.913Z,1020.17
2019-02-22T13:12:14.035Z,1020.20
2019-02-22T13:13:08.881Z,1020.19
2019-02-22T13:14:09.055Z,1020.27
2019-02-22T13:15:14.238Z,1020.32
2019-02-22T13:16:08.857Z,1020.31
2019-02-22T13:17:08.845Z,1020.37
2019-02-22T13:18:08.843Z,1020.38
2019-02-22T13:19:08.831Z,1020.37
2019-02-22T13:20:08.823Z,1020.40
2019-02-22T13:21:08.819Z,1020.36
2019-02-22T13:22:08.803Z,1020.35
2019-02-22T13:23:08.797Z,1020.43
2019-02-22T13:24:08.789Z,1020.39
2019-02-22T13:25:08.780Z,1020.47
2019-02-22T13:26:08.772Z,1020.42
2019-02-22T13:27:08.767Z,1020.41
2019-02-22T13:28:08.754Z,1020.43
2019-02-22T13:29:08.743Z,1020.51
2019-02-22T13:30:08.738Z,1020.53
2019-02-22T13:31:08.741Z,1020.60
2019-02-22T13:32:08.720Z,1020.56
2019-02-22T13:33:08.711Z,1020.56
2019-02-22T13:34:08.702Z,1020.56
2019-02-22T13:35:10.885Z,1020.57
2019-02-22T13:36:08.689Z,1020.61
2019-02-22T13:37:08.679Z,1020.64
2019-02-22T13:38:08.707Z,1020.68
2019-02-22T13:39:08.661Z,1020.67
2019-02-22T13:40:08.653Z,1020.75
2019-02-22T13:41:08.642Z,1020.73
2019-02-22T13:42:08.635Z,1020.79
2019-02-22T13:43:08.624Z,1020.79
2019-02-22T13:44:08.618Z,1020.77
2019-02-22T13:45:09.482Z,1020.83
2019-02-22T13:46:08.599Z,1020.83
2019-02-22T13:47:08.596Z,1020.89
2019-02-22T13:48:08.588Z,1020.88
2019-02-22T13:49:08.575Z,1020.84
2019-02-22T13:50:08.565Z,1020.90
2019-02-22T13:51:08.582Z,1020.91
2019-02-22T13:52:08.546Z,1020.90
2019-02-22T13:53:08.536Z,1020.89
2019-02-22T13:54:08.528Z,1020.85
2019-02-22T13:55:08.519Z,1020.88
2019-02-22T13:56:08.510Z,1020.93
2019-02-22T13:57:08.499Z,1020.91
2019-02-22T13:58:08.491Z,1020.96
2019-02-22T13:59:08.775Z,1021.06
2019-02-22T14:00:08.474Z,1021.01
2019-02-22T14:01:08.463Z,1021.00
2019-02-22T14:02:08.456Z,1021.02
2019-02-22T14:03:08.447Z,1021.06
2019-02-22T14:04:08.434Z,1021.11
2019-02-22T14:05:08.431Z,1021.14
2019-02-22T14:06:08.418Z,1021.11
2019-02-22T14:07:08.407Z,1021.21
2019-02-22T14:08:08.403Z,1021.13
2019-02-22T14:09:08.391Z,1021.19
2019-02-22T14:10:08.385Z,1021.22
2019-02-22T14:11:08.372Z,1021.23
2019-02-22T14:12:08.364Z,1021.22
2019-02-22T14:13:08.353Z,1021.27
2019-02-22T14:14:08.345Z,1021.28
2019-02-22T14:15:08.341Z,1021.32
2019-02-22T14:16:08.349Z,1021.33
2019-02-22T14:17:08.319Z,1021.35
2019-02-22T14:18:08.307Z,1021.35